Eagle Harbor, Michigan
Current Conditions -  °F | °C
As of 1:53 AM on Sunday 26 Oct 2014 (Local Time) from KCMX Reporting Station
Clear Clear  
Wind Chill: 39°   Ceiling: Unl
Heat Index: 45°   Visibility: 10mi
Dew Point: 30°   Wind: 14mph
Humidity: 56%   Direction: 310°NW
Pressure: 29.87"   Gusts: 24mph
Location:  47.3621°N, 88.1281°W
Report Text: KCMX 260553Z AUTO 31012G21KT 10SM CLR 07/M01 A2987 RMK AO2 SLP118 T00721011 10100 20072 53011
Loading
Personal Weather Stations






























Interactive Weather Map
Tropical Storm Tracking
New forecast layout! Learn more

10-Day Weather Forecast

Advertisements
Track Severe Weather on mobile